sensor_id;sensor_type;location;lat;lon;timestamp;pressure;altitude;pressure_sealevel;temperature;humidity
39729;BME280;25402;42.004;23.088;2024-02-16T00:02:00;97992.47;;;0.23;46.39
39729;BME280;25402;42.004;23.088;2024-02-16T00:04:28;97989.25;;;0.31;46.16
39729;BME280;25402;42.004;23.088;2024-02-16T00:06:56;97975.75;;;0.21;46.10
39729;BME280;25402;42.004;23.088;2024-02-16T00:09:23;98001.50;;;0.21;46.14
39729;BME280;25402;42.004;23.088;2024-02-16T00:11:50;97981.63;;;0.14;46.14
39729;BME280;25402;42.004;23.088;2024-02-16T00:14:18;97979.41;;;0.08;46.11
39729;BME280;25402;42.004;23.088;2024-02-16T00:16:47;97995.66;;;0.16;45.89
39729;BME280;25402;42.004;23.088;2024-02-16T00:19:14;97999.06;;;0.18;45.91
39729;BME280;25402;42.004;23.088;2024-02-16T00:21:41;98003.41;;;0.19;45.97
39729;BME280;25402;42.004;23.088;2024-02-16T00:24:10;98010.91;;;0.14;45.91
39729;BME280;25402;42.004;23.088;2024-02-16T00:26:37;98016.66;;;0.08;45.93
39729;BME280;25402;42.004;23.088;2024-02-16T00:29:05;98020.19;;;-0.04;46.09
39729;BME280;25402;42.004;23.088;2024-02-16T00:31:32;98024.97;;;-0.10;46.25
39729;BME280;25402;42.004;23.088;2024-02-16T00:34:00;98028.38;;;-0.08;46.40
39729;BME280;25402;42.004;23.088;2024-02-16T00:36:27;98024.94;;;-0.22;47.14
39729;BME280;25402;42.004;23.088;2024-02-16T00:38:56;98032.41;;;-0.15;46.67
39729;BME280;25402;42.004;23.088;2024-02-16T00:41:24;98021.22;;;-0.20;46.72
39729;BME280;25402;42.004;23.088;2024-02-16T00:43:52;98032.47;;;-0.42;47.37
39729;BME280;25402;42.004;23.088;2024-02-16T00:46:19;98029.91;;;-0.43;47.56
39729;BME280;25402;42.004;23.088;2024-02-16T00:48:48;98031.63;;;-0.42;46.83
39729;BME280;25402;42.004;23.088;2024-02-16T00:51:15;98031.63;;;-0.55;47.22
39729;BME280;25402;42.004;23.088;2024-02-16T00:53:43;98011.09;;;-0.65;46.98
39729;BME280;25402;42.004;23.088;2024-02-16T00:56:10;98030.78;;;-0.43;46.36
39729;BME280;25402;42.004;23.088;2024-02-16T00:58:40;98043.41;;;-0.46;46.23
39729;BME280;25402;42.004;23.088;2024-02-16T01:01:08;98038.75;;;-0.55;46.73
39729;BME280;25402;42.004;23.088;2024-02-16T01:03:38;98040.34;;;-0.53;46.56
39729;BME280;25402;42.004;23.088;2024-02-16T01:06:05;98033.31;;;-0.66;46.58
39729;BME280;25402;42.004;23.088;2024-02-16T01:08:34;98035.97;;;-0.66;46.51
39729;BME280;25402;42.004;23.088;2024-02-16T01:11:01;98044.34;;;-0.72;46.26
39729;BME280;25402;42.004;23.088;2024-02-16T01:13:28;98037.97;;;-0.83;46.85
39729;BME280;25402;42.004;23.088;2024-02-16T01:15:57;98038.72;;;-0.81;46.68
39729;BME280;25402;42.004;23.088;2024-02-16T01:18:24;98040.41;;;-0.80;46.63
39729;BME280;25402;42.004;23.088;2024-02-16T01:20:51;98026.69;;;-0.73;46.80
39729;BME280;25402;42.004;23.088;2024-02-16T01:23:19;98038.47;;;-0.78;46.94
39729;BME280;25402;42.004;23.088;2024-02-16T01:25:46;98041.19;;;-1.04;47.16
39729;BME280;25402;42.004;23.088;2024-02-16T01:28:14;98032.81;;;-0.98;46.85
39729;BME280;25402;42.004;23.088;2024-02-16T01:30:41;98042.81;;;-0.89;47.02
39729;BME280;25402;42.004;23.088;2024-02-16T01:33:10;98038.56;;;-0.92;47.26
39729;BME280;25402;42.004;23.088;2024-02-16T01:35:38;98036.84;;;-0.93;47.29
39729;BME280;25402;42.004;23.088;2024-02-16T01:38:05;98030.66;;;-1.06;47.63
39729;BME280;25402;42.004;23.088;2024-02-16T01:40:35;98041.84;;;-1.01;47.36
39729;BME280;25402;42.004;23.088;2024-02-16T01:43:03;98016.72;;;-1.10;47.25
39729;BME280;25402;42.004;23.088;2024-02-16T01:45:30;98027.84;;;-1.17;48.29
39729;BME280;25402;42.004;23.088;2024-02-16T01:47:57;98041.88;;;-1.15;48.36
39729;BME280;25402;42.004;23.088;2024-02-16T01:50:26;98029.75;;;-1.19;48.22
39729;BME280;25402;42.004;23.088;2024-02-16T01:52:55;98039.75;;;-1.10;47.95
39729;BME280;25402;42.004;23.088;2024-02-16T01:55:23;98040.75;;;-1.11;47.71
39729;BME280;25402;42.004;23.088;2024-02-16T01:57:51;98029.91;;;-1.08;47.66
39729;BME280;25402;42.004;23.088;2024-02-16T02:00:18;98044.03;;;-1.07;47.54
39729;BME280;25402;42.004;23.088;2024-02-16T02:02:46;98037.00;;;-1.08;47.85
39729;BME280;25402;42.004;23.088;2024-02-16T02:05:13;98015.81;;;-1.23;47.56
39729;BME280;25402;42.004;23.088;2024-02-16T02:07:42;98046.59;;;-1.06;47.45
39729;BME280;25402;42.004;23.088;2024-02-16T02:10:10;98041.06;;;-1.03;47.01
39729;BME280;25402;42.004;23.088;2024-02-16T02:12:39;98048.38;;;-1.06;46.87
39729;BME280;25402;42.004;23.088;2024-02-16T02:15:08;98052.94;;;-1.08;47.19
39729;BME280;25402;42.004;23.088;2024-02-16T02:17:36;98050.09;;;-1.05;46.95
39729;BME280;25402;42.004;23.088;2024-02-16T02:20:05;98046.19;;;-1.00;47.22
39729;BME280;25402;42.004;23.088;2024-02-16T02:22:36;98043.94;;;-1.06;47.06
39729;BME280;25402;42.004;23.088;2024-02-16T02:25:04;98025.97;;;-1.15;47.14
39729;BME280;25402;42.004;23.088;2024-02-16T02:27:31;98047.09;;;-1.14;47.38
39729;BME280;25402;42.004;23.088;2024-02-16T02:29:58;98047.53;;;-1.07;46.83
39729;BME280;25402;42.004;23.088;2024-02-16T02:32:26;98050.81;;;-1.16;46.84
39729;BME280;25402;42.004;23.088;2024-02-16T02:34:54;98051.66;;;-1.16;47.06
39729;BME280;25402;42.004;23.088;2024-02-16T02:37:21;98047.78;;;-1.24;46.90
39729;BME280;25402;42.004;23.088;2024-02-16T02:39:50;98046.84;;;-1.23;46.71
39729;BME280;25402;42.004;23.088;2024-02-16T02:42:17;98043.97;;;-1.20;46.82
39729;BME280;25402;42.004;23.088;2024-02-16T02:44:45;98045.97;;;-1.24;47.04
39729;BME280;25402;42.004;23.088;2024-02-16T02:47:15;98047.34;;;-1.31;47.21
39729;BME280;25402;42.004;23.088;2024-02-16T02:49:42;98057.69;;;-1.40;47.35
39729;BME280;25402;42.004;23.088;2024-02-16T02:52:10;98052.69;;;-1.45;47.72
39729;BME280;25402;42.004;23.088;2024-02-16T02:54:37;98049.84;;;-1.42;47.54
39729;BME280;25402;42.004;23.088;2024-02-16T02:57:05;98041.66;;;-1.39;47.41
39729;BME280;25402;42.004;23.088;2024-02-16T02:59:33;98056.34;;;-1.33;47.43
39729;BME280;25402;42.004;23.088;2024-02-16T03:02:00;98046.22;;;-1.41;47.43
39729;BME280;25402;42.004;23.088;2024-02-16T03:04:27;98044.63;;;-1.43;47.44
39729;BME280;25402;42.004;23.088;2024-02-16T03:06:54;98057.59;;;-1.39;47.19
39729;BME280;25402;42.004;23.088;2024-02-16T03:09:21;98062.28;;;-1.42;46.96
39729;BME280;25402;42.004;23.088;2024-02-16T03:11:49;98064.69;;;-1.39;46.89
39729;BME280;25402;42.004;23.088;2024-02-16T03:14:17;98061.69;;;-1.48;47.17
39729;BME280;25402;42.004;23.088;2024-02-16T03:16:45;98065.22;;;-1.47;46.80
39729;BME280;25402;42.004;23.088;2024-02-16T03:19:12;98066.28;;;-1.64;47.10
39729;BME280;25402;42.004;23.088;2024-02-16T03:21:40;98074.25;;;-1.64;47.06
39729;BME280;25402;42.004;23.088;2024-02-16T03:24:07;98076.38;;;-1.56;46.60
39729;BME280;25402;42.004;23.088;2024-02-16T03:26:34;98070.91;;;-1.67;47.55
39729;BME280;25402;42.004;23.088;2024-02-16T03:29:01;98068.53;;;-1.72;47.77
39729;BME280;25402;42.004;23.088;2024-02-16T03:31:30;98071.22;;;-1.58;47.66
39729;BME280;25402;42.004;23.088;2024-02-16T03:33:58;98078.31;;;-1.58;47.52
39729;BME280;25402;42.004;23.088;2024-02-16T03:36:25;98074.41;;;-1.53;47.20
39729;BME280;25402;42.004;23.088;2024-02-16T03:38:53;98070.63;;;-1.49;47.14
39729;BME280;25402;42.004;23.088;2024-02-16T03:41:21;98089.38;;;-1.52;47.42
39729;BME280;25402;42.004;23.088;2024-02-16T03:43:49;98077.44;;;-1.44;47.17
39729;BME280;25402;42.004;23.088;2024-02-16T03:46:16;98079.88;;;-1.41;47.12
39729;BME280;25402;42.004;23.088;2024-02-16T03:48:45;98078.19;;;-1.42;47.05
39729;BME280;25402;42.004;23.088;2024-02-16T03:51:12;98067.56;;;-1.57;47.03
39729;BME280;25402;42.004;23.088;2024-02-16T03:53:39;98081.50;;;-1.53;46.60
39729;BME280;25402;42.004;23.088;2024-02-16T03:56:06;98089.19;;;-1.49;46.59
39729;BME280;25402;42.004;23.088;2024-02-16T03:58:33;98092.13;;;-1.53;46.20
39729;BME280;25402;42.004;23.088;2024-02-16T04:01:00;98090.50;;;-1.56;46.56
39729;BME280;25402;42.004;23.088;2024-02-16T04:03:27;98077.06;;;-1.67;46.62
39729;BME280;25402;42.004;23.088;2024-02-16T04:05:56;98085.44;;;-1.59;46.64
39729;BME280;25402;42.004;23.088;2024-02-16T04:08:25;98084.09;;;-1.66;46.58
39729;BME280;25402;42.004;23.088;2024-02-16T04:10:52;98084.69;;;-1.75;47.17
39729;BME280;25402;42.004;23.088;2024-02-16T04:13:19;98089.78;;;-1.72;47.15
39729;BME280;25402;42.004;23.088;2024-02-16T04:15:46;98083.72;;;-1.88;47.93
39729;BME280;25402;42.004;23.088;2024-02-16T04:18:13;98083.34;;;-1.82;47.88
39729;BME280;25402;42.004;23.088;2024-02-16T04:20:40;98087.44;;;-1.76;47.26
39729;BME280;25402;42.004;23.088;2024-02-16T04:23:09;98091.69;;;-1.74;47.14
39729;BME280;25402;42.004;23.088;2024-02-16T04:25:36;98089.03;;;-1.74;46.77
39729;BME280;25402;42.004;23.088;2024-02-16T04:28:04;98090.53;;;-1.70;46.70
39729;BME280;25402;42.004;23.088;2024-02-16T04:30:31;98095.00;;;-1.85;46.92
39729;BME280;25402;42.004;23.088;2024-02-16T04:32:58;98099.44;;;-1.85;46.96
39729;BME280;25402;42.004;23.088;2024-02-16T04:35:25;98095.28;;;-1.75;46.54
39729;BME280;25402;42.004;23.088;2024-02-16T04:37:52;98097.72;;;-1.86;46.75
39729;BME280;25402;42.004;23.088;2024-02-16T04:40:21;98094.91;;;-1.83;46.59
39729;BME280;25402;42.004;23.088;2024-02-16T04:42:48;98097.88;;;-0.79;63.43
39729;BME280;25402;42.004;23.088;2024-02-16T04:45:15;98077.41;;;0.76;59.26
39729;BME280;25402;42.004;23.088;2024-02-16T04:47:42;98090.69;;;2.17;55.10
39729;BME280;25402;42.004;23.088;2024-02-16T04:50:11;98097.75;;;3.06;51.59
39729;BME280;25402;42.004;23.088;2024-02-16T04:52:39;98098.34;;;3.85;48.64
39729;BME280;25402;42.004;23.088;2024-02-16T04:55:07;98099.66;;;4.41;45.96
39729;BME280;25402;42.004;23.088;2024-02-16T04:57:35;98095.09;;;4.93;44.40
39729;BME280;25402;42.004;23.088;2024-02-16T05:00:03;98098.97;;;5.39;41.47
39729;BME280;25402;42.004;23.088;2024-02-16T05:02:30;98094.34;;;5.79;40.25
39729;BME280;25402;42.004;23.088;2024-02-16T05:04:57;98097.44;;;6.13;39.11
39729;BME280;25402;42.004;23.088;2024-02-16T05:07:24;98099.34;;;6.40;38.06
39729;BME280;25402;42.004;23.088;2024-02-16T05:09:51;98100.38;;;6.67;37.27
39729;BME280;25402;42.004;23.088;2024-02-16T05:12:23;98105.66;;;6.86;36.16
39729;BME280;25402;42.004;23.088;2024-02-16T05:14:52;98102.84;;;6.78;35.61
39729;BME280;25402;42.004;23.088;2024-02-16T05:17:19;98105.16;;;7.00;34.94
39729;BME280;25402;42.004;23.088;2024-02-16T05:19:48;98109.53;;;7.11;34.46
39729;BME280;25402;42.004;23.088;2024-02-16T05:22:15;98104.66;;;7.24;34.03
39729;BME280;25402;42.004;23.088;2024-02-16T05:24:44;98095.47;;;6.89;30.47
39729;BME280;25402;42.004;23.088;2024-02-16T05:27:11;98114.69;;;6.01;30.69
39729;BME280;25402;42.004;23.088;2024-02-16T05:29:38;98085.78;;;4.88;31.92
39729;BME280;25402;42.004;23.088;2024-02-16T05:32:07;98115.09;;;4.28;32.92
39729;BME280;25402;42.004;23.088;2024-02-16T05:34:36;98118.84;;;3.74;33.88
39729;BME280;25402;42.004;23.088;2024-02-16T05:37:04;98122.25;;;3.33;35.11
39729;BME280;25402;42.004;23.088;2024-02-16T05:39:32;98114.31;;;2.89;35.93
39729;BME280;25402;42.004;23.088;2024-02-16T05:42:01;98127.09;;;2.63;36.40
39729;BME280;25402;42.004;23.088;2024-02-16T05:44:29;98122.72;;;2.28;36.92
39729;BME280;25402;42.004;23.088;2024-02-16T05:46:58;98134.25;;;2.18;37.62
39729;BME280;25402;42.004;23.088;2024-02-16T05:49:26;98137.94;;;1.93;38.30
39729;BME280;25402;42.004;23.088;2024-02-16T05:51:54;98144.72;;;1.62;38.54
39729;BME280;25402;42.004;23.088;2024-02-16T05:54:40;98145.75;;;1.24;39.33
39729;BME280;25402;42.004;23.088;2024-02-16T05:57:07;98158.88;;;0.91;39.88
39729;BME280;25402;42.004;23.088;2024-02-16T05:59:35;98143.38;;;0.59;40.66
39729;BME280;25402;42.004;23.088;2024-02-16T06:02:04;98156.97;;;0.68;40.72
39729;BME280;25402;42.004;23.088;2024-02-16T06:04:33;98155.50;;;0.76;40.98
39729;BME280;25402;42.004;23.088;2024-02-16T06:07:00;98164.69;;;0.59;41.34
39729;BME280;25402;42.004;23.088;2024-02-16T06:09:27;98164.69;;;0.59;41.53
39729;BME280;25402;42.004;23.088;2024-02-16T06:12:01;98157.44;;;0.61;41.36
39729;BME280;25402;42.004;23.088;2024-02-16T06:14:30;98161.69;;;0.51;41.63
39729;BME280;25402;42.004;23.088;2024-02-16T06:16:57;98164.44;;;0.50;41.81
39729;BME280;25402;42.004;23.088;2024-02-16T06:19:24;98156.38;;;0.39;41.93
39729;BME280;25402;42.004;23.088;2024-02-16T06:21:54;98167.66;;;0.55;42.15
39729;BME280;25402;42.004;23.088;2024-02-16T06:24:21;98160.19;;;0.60;42.12
39729;BME280;25402;42.004;23.088;2024-02-16T06:26:49;98168.50;;;0.55;42.35
39729;BME280;25402;42.004;23.088;2024-02-16T06:29:17;98167.56;;;0.56;42.53
39729;BME280;25402;42.004;23.088;2024-02-16T06:31:45;98159.88;;;0.52;42.30
39729;BME280;25402;42.004;23.088;2024-02-16T06:34:13;98136.59;;;0.30;42.96
39729;BME280;25402;42.004;23.088;2024-02-16T06:36:40;98171.69;;;0.48;42.83
39729;BME280;25402;42.004;23.088;2024-02-16T06:39:09;98176.81;;;0.51;43.31
39729;BME280;25402;42.004;23.088;2024-02-16T06:41:36;98168.19;;;0.47;42.81
39729;BME280;25402;42.004;23.088;2024-02-16T06:44:04;98178.31;;;0.55;43.01
39729;BME280;25402;42.004;23.088;2024-02-16T06:46:31;98178.59;;;0.63;42.49
39729;BME280;25402;42.004;23.088;2024-02-16T06:48:58;98171.69;;;0.73;42.21
39729;BME280;25402;42.004;23.088;2024-02-16T06:51:25;98149.75;;;0.70;42.30
39729;BME280;25402;42.004;23.088;2024-02-16T06:53:54;98178.91;;;0.84;42.26
39729;BME280;25402;42.004;23.088;2024-02-16T06:56:22;98164.63;;;0.85;42.55
39729;BME280;25402;42.004;23.088;2024-02-16T06:58:50;98169.88;;;1.10;42.06
39729;BME280;25402;42.004;23.088;2024-02-16T07:01:17;98167.31;;;1.21;43.86
39729;BME280;25402;42.004;23.088;2024-02-16T07:03:45;98176.63;;;1.40;42.00
39729;BME280;25402;42.004;23.088;2024-02-16T07:06:12;98164.06;;;1.29;41.79
39729;BME280;25402;42.004;23.088;2024-02-16T07:08:39;98166.91;;;1.39;42.05
39729;BME280;25402;42.004;23.088;2024-02-16T07:11:06;98169.38;;;1.29;42.04
39729;BME280;25402;42.004;23.088;2024-02-16T07:13:35;98168.53;;;1.28;42.08
39729;BME280;25402;42.004;23.088;2024-02-16T07:16:04;98153.63;;;1.26;41.71
39729;BME280;25402;42.004;23.088;2024-02-16T07:18:32;98171.88;;;1.43;42.10
39729;BME280;25402;42.004;23.088;2024-02-16T07:21:00;98175.28;;;1.45;42.05
39729;BME280;25402;42.004;23.088;2024-02-16T07:23:27;98156.25;;;1.39;42.01
39729;BME280;25402;42.004;23.088;2024-02-16T07:25:54;98159.94;;;1.49;41.75
39729;BME280;25402;42.004;23.088;2024-02-16T07:28:22;98159.69;;;1.52;41.95
39729;BME280;25402;42.004;23.088;2024-02-16T07:30:51;98174.78;;;1.64;41.79
39729;BME280;25402;42.004;23.088;2024-02-16T07:33:19;98178.25;;;1.77;41.50
39729;BME280;25402;42.004;23.088;2024-02-16T07:35:46;98170.34;;;1.99;41.22
39729;BME280;25402;42.004;23.088;2024-02-16T07:38:13;98163.81;;;2.03;41.04
39729;BME280;25402;42.004;23.088;2024-02-16T07:40:40;98171.13;;;2.24;41.05
39729;BME280;25402;42.004;23.088;2024-02-16T07:43:11;98160.94;;;2.29;40.71
39729;BME280;25402;42.004;23.088;2024-02-16T07:45:38;98167.75;;;2.33;40.98
39729;BME280;25402;42.004;23.088;2024-02-16T07:48:07;98162.66;;;2.52;40.71
39729;BME280;25402;42.004;23.088;2024-02-16T07:50:34;98170.69;;;2.63;40.45
39729;BME280;25402;42.004;23.088;2024-02-16T07:53:01;98165.84;;;2.80;40.40
39729;BME280;25402;42.004;23.088;2024-02-16T07:55:28;98165.34;;;2.86;40.31
39729;BME280;25402;42.004;23.088;2024-02-16T07:57:55;98158.03;;;3.10;39.81
39729;BME280;25402;42.004;23.088;2024-02-16T08:00:22;98163.88;;;3.26;39.27
39729;BME280;25402;42.004;23.088;2024-02-16T08:02:49;98147.72;;;3.28;38.86
39729;BME280;25402;42.004;23.088;2024-02-16T08:05:21;98135.88;;;3.41;38.69
39729;BME280;25402;42.004;23.088;2024-02-16T08:07:49;98155.78;;;3.80;38.44
39729;BME280;25402;42.004;23.088;2024-02-16T08:10:19;98166.50;;;4.01;38.19
39729;BME280;25402;42.004;23.088;2024-02-16T08:12:47;98163.25;;;4.19;37.78
39729;BME280;25402;42.004;23.088;2024-02-16T08:15:14;98157.41;;;4.55;39.40
39729;BME280;25402;42.004;23.088;2024-02-16T08:17:48;98155.13;;;4.71;36.77
39729;BME280;25402;42.004;23.088;2024-02-16T08:20:15;98153.91;;;4.85;36.41
39729;BME280;25402;42.004;23.088;2024-02-16T08:22:44;98147.50;;;4.76;36.43
39729;BME280;25402;42.004;23.088;2024-02-16T08:25:11;98148.19;;;4.99;36.18
39729;BME280;25402;42.004;23.088;2024-02-16T08:27:38;98155.25;;;5.10;35.80
39729;BME280;25402;42.004;23.088;2024-02-16T08:30:06;98137.78;;;5.15;36.05
39729;BME280;25402;42.004;23.088;2024-02-16T08:32:34;98156.63;;;5.35;35.57
39729;BME280;25402;42.004;23.088;2024-02-16T08:35:05;98150.81;;;5.39;35.70
39729;BME280;25402;42.004;23.088;2024-02-16T08:37:32;98123.41;;;5.36;35.39
39729;BME280;25402;42.004;23.088;2024-02-16T08:40:01;98154.97;;;5.63;35.44
39729;BME280;25402;42.004;23.088;2024-02-16T08:42:29;98140.69;;;5.72;35.08
39729;BME280;25402;42.004;23.088;2024-02-16T08:44:57;98145.91;;;5.83;35.39
39729;BME280;25402;42.004;23.088;2024-02-16T08:47:25;98148.22;;;5.97;35.07
39729;BME280;25402;42.004;23.088;2024-02-16T08:49:52;98122.88;;;6.00;34.85
39729;BME280;25402;42.004;23.088;2024-02-16T08:52:19;98145.81;;;6.13;34.95
39729;BME280;25402;42.004;23.088;2024-02-16T08:54:46;98144.91;;;6.32;34.79
39729;BME280;25402;42.004;23.088;2024-02-16T08:57:15;98141.19;;;6.52;34.19
39729;BME280;25402;42.004;23.088;2024-02-16T08:59:42;98144.28;;;6.57;33.77
39729;BME280;25402;42.004;23.088;2024-02-16T09:02:10;98140.56;;;6.68;33.70
39729;BME280;25402;42.004;23.088;2024-02-16T09:04:37;98137.69;;;6.79;33.52
39729;BME280;25402;42.004;23.088;2024-02-16T09:07:04;98138.03;;;6.94;33.03
39729;BME280;25402;42.004;23.088;2024-02-16T09:09:31;98137.09;;;6.85;33.12
39729;BME280;25402;42.004;23.088;2024-02-16T09:11:59;98132.50;;;7.05;32.81
39729;BME280;25402;42.004;23.088;2024-02-16T09:14:27;98129.31;;;7.19;32.48
39729;BME280;25402;42.004;23.088;2024-02-16T09:16:55;98140.81;;;7.39;32.19
39729;BME280;25402;42.004;23.088;2024-02-16T09:19:22;98140.63;;;7.23;31.73
39729;BME280;25402;42.004;23.088;2024-02-16T09:21:49;98123.78;;;7.21;32.62
39729;BME280;25402;42.004;23.088;2024-02-16T09:24:17;98116.19;;;7.34;32.75
39729;BME280;25402;42.004;23.088;2024-02-16T09:26:44;98139.63;;;7.69;32.78
39729;BME280;25402;42.004;23.088;2024-02-16T09:29:13;98128.44;;;7.82;31.85
39729;BME280;25402;42.004;23.088;2024-02-16T09:31:42;98129.50;;;7.89;32.01
39729;BME280;25402;42.004;23.088;2024-02-16T09:34:09;98136.84;;;8.14;32.03
39729;BME280;25402;42.004;23.088;2024-02-16T09:36:36;98123.22;;;8.42;40.04
39729;BME280;25402;42.004;23.088;2024-02-16T09:39:03;98094.50;;;9.26;38.72
39729;BME280;25402;42.004;23.088;2024-02-16T09:41:34;98126.88;;;10.25;36.64
39729;BME280;25402;42.004;23.088;2024-02-16T09:44:02;98124.44;;;10.79;34.94
39729;BME280;25402;42.004;23.088;2024-02-16T09:46:30;98120.50;;;11.37;34.10
39729;BME280;25402;42.004;23.088;2024-02-16T09:49:01;98116.50;;;11.87;33.17
39729;BME280;25402;42.004;23.088;2024-02-16T09:51:28;98127.06;;;12.27;32.19
39729;BME280;25402;42.004;23.088;2024-02-16T09:53:56;98114.22;;;12.59;31.45
39729;BME280;25402;42.004;23.088;2024-02-16T09:56:23;98098.53;;;12.98;30.32
39729;BME280;25402;42.004;23.088;2024-02-16T09:58:51;98109.63;;;13.33;28.91
39729;BME280;25402;42.004;23.088;2024-02-16T10:01:19;98104.91;;;13.56;28.83
39729;BME280;25402;42.004;23.088;2024-02-16T10:03:47;98085.53;;;13.80;28.28
39729;BME280;25402;42.004;23.088;2024-02-16T10:08:50;98091.47;;;14.33;27.57
39729;BME280;25402;42.004;23.088;2024-02-16T10:11:18;98088.03;;;14.46;27.28
39729;BME280;25402;42.004;23.088;2024-02-16T10:13:56;98088.84;;;14.74;26.74
39729;BME280;25402;42.004;23.088;2024-02-16T10:16:23;98087.44;;;14.85;25.93
39729;BME280;25402;42.004;23.088;2024-02-16T10:18:51;98076.69;;;15.05;25.72
39729;BME280;25402;42.004;23.088;2024-02-16T10:21:25;98076.09;;;14.81;24.05
39729;BME280;25402;42.004;23.088;2024-02-16T10:24:00;98062.59;;;14.67;24.47
39729;BME280;25402;42.004;23.088;2024-02-16T10:26:28;98070.09;;;14.09;23.24
39729;BME280;25402;42.004;23.088;2024-02-16T10:28:56;98062.78;;;14.31;25.89
39729;BME280;25402;42.004;23.088;2024-02-16T10:31:24;98060.94;;;14.66;25.96
39729;BME280;25402;42.004;23.088;2024-02-16T10:33:57;98039.25;;;14.79;25.14
39729;BME280;25402;42.004;23.088;2024-02-16T10:36:25;98057.44;;;15.06;24.85
39729;BME280;25402;42.004;23.088;2024-02-16T10:38:54;98056.63;;;15.19;24.90
39729;BME280;25402;42.004;23.088;2024-02-16T10:41:25;98058.41;;;15.40;24.49
39729;BME280;25402;42.004;23.088;2024-02-16T10:43:54;98052.38;;;15.57;24.19
39729;BME280;25402;42.004;23.088;2024-02-16T10:46:22;98046.72;;;15.66;24.15
39729;BME280;25402;42.004;23.088;2024-02-16T10:48:50;98040.88;;;15.75;23.39
39729;BME280;25402;42.004;23.088;2024-02-16T10:51:19;98038.59;;;15.85;23.67
39729;BME280;25402;42.004;23.088;2024-02-16T10:53:52;98036.31;;;15.89;23.42
39729;BME280;25402;42.004;23.088;2024-02-16T10:56:32;98028.22;;;15.41;21.39
39729;BME280;25402;42.004;23.088;2024-02-16T10:59:01;98016.19;;;14.81;22.23
39729;BME280;25402;42.004;23.088;2024-02-16T11:01:32;98009.09;;;14.87;23.96
39729;BME280;25402;42.004;23.088;2024-02-16T11:04:04;98013.47;;;15.29;23.97
39729;BME280;25402;42.004;23.088;2024-02-16T11:06:47;98015.25;;;15.63;23.55
39729;BME280;25402;42.004;23.088;2024-02-16T11:09:27;98006.50;;;15.81;23.73
39729;BME280;25402;42.004;23.088;2024-02-16T11:12:01;98003.56;;;15.95;23.50
39729;BME280;25402;42.004;23.088;2024-02-16T11:14:35;98006.28;;;15.95;23.51
39729;BME280;25402;42.004;23.088;2024-02-16T11:17:07;97996.84;;;16.05;23.39
39729;BME280;25402;42.004;23.088;2024-02-16T11:19:36;97997.25;;;16.28;23.56
39729;BME280;25402;42.004;23.088;2024-02-16T11:22:08;97989.72;;;15.97;21.54
39729;BME280;25402;42.004;23.088;2024-02-16T11:24:43;97970.13;;;15.60;22.55
39729;BME280;25402;42.004;23.088;2024-02-16T11:27:12;97986.78;;;15.85;21.39
39729;BME280;25402;42.004;23.088;2024-02-16T11:29:41;97982.16;;;15.79;22.80
39729;BME280;25402;42.004;23.088;2024-02-16T11:32:08;97977.94;;;15.96;22.68
39729;BME280;25402;42.004;23.088;2024-02-16T11:34:35;97976.28;;;15.95;22.11
39729;BME280;25402;42.004;23.088;2024-02-16T11:37:04;97970.38;;;15.92;21.32
39729;BME280;25402;42.004;23.088;2024-02-16T11:39:31;97961.16;;;16.13;22.98
39729;BME280;25402;42.004;23.088;2024-02-16T11:42:02;97955.25;;;16.36;23.07
39729;BME280;25402;42.004;23.088;2024-02-16T11:44:31;97949.75;;;16.55;22.36
39729;BME280;25402;42.004;23.088;2024-02-16T11:46:59;97949.00;;;16.02;20.55
39729;BME280;25402;42.004;23.088;2024-02-16T11:49:27;97946.66;;;16.19;22.43
39729;BME280;25402;42.004;23.088;2024-02-16T11:51:55;97939.50;;;16.24;22.54
39729;BME280;25402;42.004;23.088;2024-02-16T11:54:22;97939.75;;;15.96;23.55
39729;BME280;25402;42.004;23.088;2024-02-16T11:56:51;97932.16;;;16.31;22.49
39729;BME280;25402;42.004;23.088;2024-02-16T11:59:19;97939.22;;;16.65;22.05
39729;BME280;25402;42.004;23.088;2024-02-16T12:01:52;97931.16;;;16.84;22.21
39729;BME280;25402;42.004;23.088;2024-02-16T12:04:23;97934.47;;;16.99;21.86
39729;BME280;25402;42.004;23.088;2024-02-16T12:06:51;97920.94;;;17.04;21.92
39729;BME280;25402;42.004;23.088;2024-02-16T12:09:19;97918.19;;;17.11;20.93
39729;BME280;25402;42.004;23.088;2024-02-16T12:11:47;97917.59;;;17.02;21.25
39729;BME280;25402;42.004;23.088;2024-02-16T12:14:15;97910.03;;;17.04;21.05
39729;BME280;25402;42.004;23.088;2024-02-16T12:16:42;97911.69;;;17.05;20.56
39729;BME280;25402;42.004;23.088;2024-02-16T12:19:11;97909.16;;;17.10;21.53
39729;BME280;25402;42.004;23.088;2024-02-16T12:21:38;97912.06;;;17.22;22.01
39729;BME280;25402;42.004;23.088;2024-02-16T12:24:06;97908.53;;;17.15;20.71
39729;BME280;25402;42.004;23.088;2024-02-16T12:26:33;97900.91;;;17.23;21.44
39729;BME280;25402;42.004;23.088;2024-02-16T12:29:00;97896.25;;;16.86;20.21
39729;BME280;25402;42.004;23.088;2024-02-16T12:31:29;97888.38;;;16.58;20.24
39729;BME280;25402;42.004;23.088;2024-02-16T12:33:56;97884.13;;;16.68;21.30
39729;BME280;25402;42.004;23.088;2024-02-16T12:36:25;97881.50;;;16.49;20.23
39729;BME280;25402;42.004;23.088;2024-02-16T12:38:53;97880.75;;;16.15;19.98
39729;BME280;25402;42.004;23.088;2024-02-16T12:41:20;97875.81;;;16.37;21.55
39729;BME280;25402;42.004;23.088;2024-02-16T12:43:48;97873.72;;;16.52;21.48
39729;BME280;25402;42.004;23.088;2024-02-16T12:46:15;97872.44;;;16.55;21.77
39729;BME280;25402;42.004;23.088;2024-02-16T12:48:42;97870.72;;;16.67;20.40
39729;BME280;25402;42.004;23.088;2024-02-16T12:51:09;97871.94;;;16.71;21.62
39729;BME280;25402;42.004;23.088;2024-02-16T12:53:41;97862.69;;;16.72;21.01
39729;BME280;25402;42.004;23.088;2024-02-16T12:56:08;97870.66;;;16.74;21.29
39729;BME280;25402;42.004;23.088;2024-02-16T12:58:36;97863.09;;;16.76;21.86
39729;BME280;25402;42.004;23.088;2024-02-16T13:01:04;97866.09;;;16.67;20.71
39729;BME280;25402;42.004;23.088;2024-02-16T13:03:34;97862.66;;;16.79;21.93